sensor_id;sensor_type;location;lat;lon;timestamp;P1;durP1;ratioP1;P2;durP2;ratioP2
47539;SDS011;33280;52.152;21.052;2023-04-15T00:01:10;11.27;;;7.33;;
47539;SDS011;33280;52.152;21.052;2023-04-15T00:03:38;10.87;;;7.50;;
47539;SDS011;33280;52.152;21.052;2023-04-15T00:06:05;10.37;;;7.10;;
47539;SDS011;33280;52.152;21.052;2023-04-15T00:08:34;11.27;;;6.93;;
47539;SDS011;33280;52.152;21.052;2023-04-15T00:11:01;17.70;;;8.30;;
47539;SDS011;33280;52.152;21.052;2023-04-15T00:13:31;12.20;;;7.83;;
47539;SDS011;33280;52.152;21.052;2023-04-15T00:16:00;13.30;;;7.93;;
47539;SDS011;33280;52.152;21.052;2023-04-15T00:18:28;12.70;;;7.60;;
47539;SDS011;33280;52.152;21.052;2023-04-15T00:20:57;12.20;;;7.93;;
47539;SDS011;33280;52.152;21.052;2023-04-15T00:23:24;12.37;;;8.07;;
47539;SDS011;33280;52.152;21.052;2023-04-15T00:25:52;11.70;;;7.67;;
47539;SDS011;33280;52.152;21.052;2023-04-15T00:28:19;13.20;;;8.10;;
47539;SDS011;33280;52.152;21.052;2023-04-15T00:30:46;11.77;;;8.17;;
47539;SDS011;33280;52.152;21.052;2023-04-15T00:33:13;12.53;;;8.17;;
47539;SDS011;33280;52.152;21.052;2023-04-15T00:35:41;13.23;;;8.50;;
47539;SDS011;33280;52.152;21.052;2023-04-15T00:38:09;13.23;;;8.20;;
47539;SDS011;33280;52.152;21.052;2023-04-15T00:40:36;11.43;;;7.70;;
47539;SDS011;33280;52.152;21.052;2023-04-15T00:43:04;12.30;;;8.00;;
47539;SDS011;33280;52.152;21.052;2023-04-15T00:45:31;14.70;;;8.53;;
47539;SDS011;33280;52.152;21.052;2023-04-15T00:48:02;12.93;;;8.47;;
47539;SDS011;33280;52.152;21.052;2023-04-15T00:50:32;12.60;;;8.40;;
47539;SDS011;33280;52.152;21.052;2023-04-15T00:52:59;14.83;;;8.90;;
47539;SDS011;33280;52.152;21.052;2023-04-15T00:55:26;12.73;;;8.00;;
47539;SDS011;33280;52.152;21.052;2023-04-15T00:57:55;12.47;;;8.17;;
47539;SDS011;33280;52.152;21.052;2023-04-15T01:00:22;13.60;;;8.47;;
47539;SDS011;33280;52.152;21.052;2023-04-15T01:02:50;12.13;;;8.20;;
47539;SDS011;33280;52.152;21.052;2023-04-15T01:05:17;13.73;;;8.83;;
47539;SDS011;33280;52.152;21.052;2023-04-15T01:07:45;12.63;;;8.40;;
47539;SDS011;33280;52.152;21.052;2023-04-15T01:10:13;14.00;;;8.63;;
47539;SDS011;33280;52.152;21.052;2023-04-15T01:12:40;14.13;;;8.33;;
47539;SDS011;33280;52.152;21.052;2023-04-15T01:15:15;14.37;;;9.40;;
47539;SDS011;33280;52.152;21.052;2023-04-15T01:17:42;17.00;;;9.73;;
47539;SDS011;33280;52.152;21.052;2023-04-15T01:20:08;15.10;;;9.90;;
47539;SDS011;33280;52.152;21.052;2023-04-15T01:22:37;15.50;;;9.87;;
47539;SDS011;33280;52.152;21.052;2023-04-15T01:25:05;16.77;;;9.60;;
47539;SDS011;33280;52.152;21.052;2023-04-15T01:27:36;18.43;;;10.23;;
47539;SDS011;33280;52.152;21.052;2023-04-15T01:30:07;15.47;;;9.90;;
47539;SDS011;33280;52.152;21.052;2023-04-15T01:32:36;13.33;;;8.90;;
47539;SDS011;33280;52.152;21.052;2023-04-15T01:35:03;14.00;;;10.07;;
47539;SDS011;33280;52.152;21.052;2023-04-15T01:37:30;14.20;;;10.03;;
47539;SDS011;33280;52.152;21.052;2023-04-15T01:39:58;14.23;;;9.57;;
47539;SDS011;33280;52.152;21.052;2023-04-15T01:42:25;14.77;;;10.10;;
47539;SDS011;33280;52.152;21.052;2023-04-15T01:44:53;15.50;;;10.37;;
47539;SDS011;33280;52.152;21.052;2023-04-15T01:47:20;15.97;;;10.63;;
47539;SDS011;33280;52.152;21.052;2023-04-15T01:49:47;17.13;;;10.50;;
47539;SDS011;33280;52.152;21.052;2023-04-15T01:52:14;19.10;;;10.07;;
47539;SDS011;33280;52.152;21.052;2023-04-15T01:54:40;19.77;;;10.83;;
47539;SDS011;33280;52.152;21.052;2023-04-15T01:57:07;19.30;;;10.20;;
47539;SDS011;33280;52.152;21.052;2023-04-15T01:59:35;16.27;;;10.27;;
47539;SDS011;33280;52.152;21.052;2023-04-15T02:02:02;17.93;;;11.17;;
47539;SDS011;33280;52.152;21.052;2023-04-15T02:04:30;15.23;;;10.30;;
47539;SDS011;33280;52.152;21.052;2023-04-15T02:06:57;15.47;;;10.67;;
47539;SDS011;33280;52.152;21.052;2023-04-15T02:09:23;14.87;;;10.40;;
47539;SDS011;33280;52.152;21.052;2023-04-15T02:11:51;17.83;;;11.27;;
47539;SDS011;33280;52.152;21.052;2023-04-15T02:14:19;18.30;;;11.07;;
47539;SDS011;33280;52.152;21.052;2023-04-15T02:16:46;16.93;;;10.73;;
47539;SDS011;33280;52.152;21.052;2023-04-15T02:19:13;21.33;;;11.50;;
47539;SDS011;33280;52.152;21.052;2023-04-15T02:21:40;18.90;;;11.70;;
47539;SDS011;33280;52.152;21.052;2023-04-15T02:24:07;15.40;;;11.30;;
47539;SDS011;33280;52.152;21.052;2023-04-15T02:26:34;16.70;;;11.23;;
47539;SDS011;33280;52.152;21.052;2023-04-15T02:29:01;16.13;;;10.77;;
47539;SDS011;33280;52.152;21.052;2023-04-15T02:31:29;18.37;;;11.50;;
47539;SDS011;33280;52.152;21.052;2023-04-15T02:33:56;18.27;;;10.87;;
47539;SDS011;33280;52.152;21.052;2023-04-15T02:36:22;19.53;;;10.83;;
47539;SDS011;33280;52.152;21.052;2023-04-15T02:38:49;15.47;;;10.53;;
47539;SDS011;33280;52.152;21.052;2023-04-15T02:41:17;18.20;;;11.90;;
47539;SDS011;33280;52.152;21.052;2023-04-15T02:43:45;19.43;;;11.37;;
47539;SDS011;33280;52.152;21.052;2023-04-15T02:46:12;16.83;;;11.07;;
47539;SDS011;33280;52.152;21.052;2023-04-15T02:48:40;20.30;;;11.13;;
47539;SDS011;33280;52.152;21.052;2023-04-15T02:51:11;21.27;;;12.40;;
47539;SDS011;33280;52.152;21.052;2023-04-15T02:53:37;17.17;;;11.63;;
47539;SDS011;33280;52.152;21.052;2023-04-15T02:56:05;19.03;;;11.83;;
47539;SDS011;33280;52.152;21.052;2023-04-15T02:58:41;17.10;;;11.40;;
47539;SDS011;33280;52.152;21.052;2023-04-15T03:01:09;17.57;;;11.60;;
47539;SDS011;33280;52.152;21.052;2023-04-15T03:03:37;16.93;;;11.67;;
47539;SDS011;33280;52.152;21.052;2023-04-15T03:06:05;18.90;;;12.43;;
47539;SDS011;33280;52.152;21.052;2023-04-15T03:08:36;19.33;;;11.40;;
47539;SDS011;33280;52.152;21.052;2023-04-15T03:11:03;18.90;;;12.23;;
47539;SDS011;33280;52.152;21.052;2023-04-15T03:13:30;17.30;;;11.90;;
47539;SDS011;33280;52.152;21.052;2023-04-15T03:15:57;17.97;;;11.60;;
47539;SDS011;33280;52.152;21.052;2023-04-15T03:18:24;17.07;;;11.10;;
47539;SDS011;33280;52.152;21.052;2023-04-15T03:20:51;19.47;;;12.47;;
47539;SDS011;33280;52.152;21.052;2023-04-15T03:23:18;19.27;;;11.77;;
47539;SDS011;33280;52.152;21.052;2023-04-15T03:25:45;19.80;;;12.00;;
47539;SDS011;33280;52.152;21.052;2023-04-15T03:28:12;18.07;;;11.70;;
47539;SDS011;33280;52.152;21.052;2023-04-15T03:30:39;19.70;;;12.53;;
47539;SDS011;33280;52.152;21.052;2023-04-15T03:33:06;17.70;;;11.80;;
47539;SDS011;33280;52.152;21.052;2023-04-15T03:35:33;17.43;;;11.70;;
47539;SDS011;33280;52.152;21.052;2023-04-15T03:38:00;19.23;;;11.60;;
47539;SDS011;33280;52.152;21.052;2023-04-15T03:40:27;16.33;;;11.07;;
47539;SDS011;33280;52.152;21.052;2023-04-15T03:42:54;16.87;;;11.37;;
47539;SDS011;33280;52.152;21.052;2023-04-15T03:45:21;17.63;;;11.50;;
47539;SDS011;33280;52.152;21.052;2023-04-15T03:47:48;18.83;;;11.27;;
47539;SDS011;33280;52.152;21.052;2023-04-15T03:50:15;18.03;;;10.70;;
47539;SDS011;33280;52.152;21.052;2023-04-15T03:52:42;17.93;;;11.27;;
47539;SDS011;33280;52.152;21.052;2023-04-15T03:55:10;17.50;;;11.47;;
47539;SDS011;33280;52.152;21.052;2023-04-15T03:57:37;17.67;;;10.23;;
47539;SDS011;33280;52.152;21.052;2023-04-15T04:00:05;17.30;;;10.90;;
47539;SDS011;33280;52.152;21.052;2023-04-15T04:02:32;17.80;;;11.60;;
47539;SDS011;33280;52.152;21.052;2023-04-15T04:04:59;20.33;;;11.67;;
47539;SDS011;33280;52.152;21.052;2023-04-15T04:07:26;19.83;;;11.17;;
47539;SDS011;33280;52.152;21.052;2023-04-15T04:09:56;15.70;;;11.10;;
47539;SDS011;33280;52.152;21.052;2023-04-15T04:12:23;19.10;;;11.23;;
47539;SDS011;33280;52.152;21.052;2023-04-15T04:14:50;17.30;;;12.30;;
47539;SDS011;33280;52.152;21.052;2023-04-15T04:17:17;17.83;;;11.03;;
47539;SDS011;33280;52.152;21.052;2023-04-15T04:19:44;18.80;;;11.37;;
47539;SDS011;33280;52.152;21.052;2023-04-15T04:22:11;17.87;;;11.40;;
47539;SDS011;33280;52.152;21.052;2023-04-15T04:24:37;18.30;;;11.10;;
47539;SDS011;33280;52.152;21.052;2023-04-15T04:27:04;19.63;;;11.83;;
47539;SDS011;33280;52.152;21.052;2023-04-15T04:29:31;18.00;;;11.23;;
47539;SDS011;33280;52.152;21.052;2023-04-15T04:31:58;17.30;;;11.57;;
47539;SDS011;33280;52.152;21.052;2023-04-15T04:34:25;16.27;;;11.50;;
47539;SDS011;33280;52.152;21.052;2023-04-15T04:36:52;18.10;;;11.30;;
47539;SDS011;33280;52.152;21.052;2023-04-15T04:39:19;17.90;;;11.00;;
47539;SDS011;33280;52.152;21.052;2023-04-15T04:41:46;17.53;;;11.40;;
47539;SDS011;33280;52.152;21.052;2023-04-15T04:44:15;16.57;;;11.10;;
47539;SDS011;33280;52.152;21.052;2023-04-15T04:46:43;18.37;;;11.80;;
47539;SDS011;33280;52.152;21.052;2023-04-15T04:49:10;18.77;;;12.10;;
47539;SDS011;33280;52.152;21.052;2023-04-15T04:51:37;19.47;;;11.70;;
47539;SDS011;33280;52.152;21.052;2023-04-15T04:54:04;18.70;;;11.97;;
47539;SDS011;33280;52.152;21.052;2023-04-15T04:56:31;19.33;;;11.40;;
47539;SDS011;33280;52.152;21.052;2023-04-15T04:58:59;17.93;;;11.63;;
47539;SDS011;33280;52.152;21.052;2023-04-15T05:01:27;17.80;;;12.07;;
47539;SDS011;33280;52.152;21.052;2023-04-15T05:03:54;17.37;;;11.73;;
47539;SDS011;33280;52.152;21.052;2023-04-15T05:06:21;19.57;;;11.93;;
47539;SDS011;33280;52.152;21.052;2023-04-15T05:08:48;17.73;;;11.80;;
47539;SDS011;33280;52.152;21.052;2023-04-15T05:11:15;17.60;;;11.97;;
47539;SDS011;33280;52.152;21.052;2023-04-15T05:13:50;17.40;;;11.27;;
47539;SDS011;33280;52.152;21.052;2023-04-15T05:16:17;18.03;;;11.77;;
47539;SDS011;33280;52.152;21.052;2023-04-15T05:18:45;19.37;;;11.50;;
47539;SDS011;33280;52.152;21.052;2023-04-15T05:21:12;19.53;;;11.60;;
47539;SDS011;33280;52.152;21.052;2023-04-15T05:23:39;15.83;;;10.27;;
47539;SDS011;33280;52.152;21.052;2023-04-15T05:26:06;20.03;;;12.00;;
47539;SDS011;33280;52.152;21.052;2023-04-15T05:28:46;19.73;;;10.93;;
47539;SDS011;33280;52.152;21.052;2023-04-15T05:31:19;16.33;;;11.03;;
47539;SDS011;33280;52.152;21.052;2023-04-15T05:33:46;19.80;;;12.57;;
47539;SDS011;33280;52.152;21.052;2023-04-15T05:36:13;16.97;;;11.27;;
47539;SDS011;33280;52.152;21.052;2023-04-15T05:38:41;17.60;;;11.93;;
47539;SDS011;33280;52.152;21.052;2023-04-15T05:41:07;15.77;;;10.70;;
47539;SDS011;33280;52.152;21.052;2023-04-15T05:43:34;19.50;;;11.70;;
47539;SDS011;33280;52.152;21.052;2023-04-15T05:46:01;19.53;;;11.30;;
47539;SDS011;33280;52.152;21.052;2023-04-15T05:48:29;17.73;;;11.07;;
47539;SDS011;33280;52.152;21.052;2023-04-15T05:50:55;18.10;;;11.03;;
47539;SDS011;33280;52.152;21.052;2023-04-15T05:53:22;16.80;;;11.03;;
47539;SDS011;33280;52.152;21.052;2023-04-15T05:55:49;16.30;;;10.20;;
47539;SDS011;33280;52.152;21.052;2023-04-15T05:58:16;16.70;;;10.63;;
47539;SDS011;33280;52.152;21.052;2023-04-15T06:00:43;16.63;;;10.53;;
47539;SDS011;33280;52.152;21.052;2023-04-15T06:03:11;16.20;;;11.13;;
47539;SDS011;33280;52.152;21.052;2023-04-15T06:05:38;16.27;;;10.67;;
47539;SDS011;33280;52.152;21.052;2023-04-15T06:08:05;16.67;;;10.87;;
47539;SDS011;33280;52.152;21.052;2023-04-15T06:10:34;17.73;;;10.90;;
47539;SDS011;33280;52.152;21.052;2023-04-15T06:13:02;16.33;;;10.03;;
47539;SDS011;33280;52.152;21.052;2023-04-15T06:15:29;15.97;;;10.10;;
47539;SDS011;33280;52.152;21.052;2023-04-15T06:17:56;15.40;;;9.97;;
47539;SDS011;33280;52.152;21.052;2023-04-15T06:20:23;17.17;;;10.10;;
47539;SDS011;33280;52.152;21.052;2023-04-15T06:22:50;17.10;;;10.80;;
47539;SDS011;33280;52.152;21.052;2023-04-15T06:25:17;14.80;;;10.13;;
47539;SDS011;33280;52.152;21.052;2023-04-15T06:27:44;15.67;;;9.83;;
47539;SDS011;33280;52.152;21.052;2023-04-15T06:30:11;15.53;;;10.20;;
47539;SDS011;33280;52.152;21.052;2023-04-15T06:32:38;14.33;;;9.57;;
47539;SDS011;33280;52.152;21.052;2023-04-15T06:35:05;14.67;;;9.80;;
47539;SDS011;33280;52.152;21.052;2023-04-15T06:37:32;14.00;;;9.50;;
47539;SDS011;33280;52.152;21.052;2023-04-15T06:39:59;16.40;;;10.40;;
47539;SDS011;33280;52.152;21.052;2023-04-15T06:42:26;15.37;;;9.40;;
47539;SDS011;33280;52.152;21.052;2023-04-15T06:44:53;17.17;;;9.07;;
47539;SDS011;33280;52.152;21.052;2023-04-15T06:47:20;24.07;;;10.57;;
47539;SDS011;33280;52.152;21.052;2023-04-15T06:49:47;15.13;;;8.87;;
47539;SDS011;33280;52.152;21.052;2023-04-15T06:52:13;14.30;;;9.17;;
47539;SDS011;33280;52.152;21.052;2023-04-15T06:54:42;12.53;;;8.70;;
47539;SDS011;33280;52.152;21.052;2023-04-15T06:57:08;14.10;;;9.13;;
47539;SDS011;33280;52.152;21.052;2023-04-15T06:59:36;16.57;;;9.10;;
47539;SDS011;33280;52.152;21.052;2023-04-15T07:02:09;13.50;;;8.37;;
47539;SDS011;33280;52.152;21.052;2023-04-15T07:04:38;14.10;;;8.20;;
47539;SDS011;33280;52.152;21.052;2023-04-15T07:07:05;12.43;;;8.47;;
47539;SDS011;33280;52.152;21.052;2023-04-15T07:09:33;13.63;;;7.90;;
47539;SDS011;33280;52.152;21.052;2023-04-15T07:12:00;14.50;;;7.87;;
47539;SDS011;33280;52.152;21.052;2023-04-15T07:14:27;12.27;;;7.77;;
47539;SDS011;33280;52.152;21.052;2023-04-15T07:16:54;11.77;;;7.53;;
47539;SDS011;33280;52.152;21.052;2023-04-15T07:19:21;12.00;;;7.53;;
47539;SDS011;33280;52.152;21.052;2023-04-15T07:21:49;9.87;;;7.20;;
47539;SDS011;33280;52.152;21.052;2023-04-15T07:24:16;10.67;;;7.27;;
47539;SDS011;33280;52.152;21.052;2023-04-15T07:26:45;12.43;;;7.37;;
47539;SDS011;33280;52.152;21.052;2023-04-15T07:29:12;12.47;;;7.33;;
47539;SDS011;33280;52.152;21.052;2023-04-15T07:31:39;10.07;;;7.33;;
47539;SDS011;33280;52.152;21.052;2023-04-15T07:34:07;9.87;;;6.43;;
47539;SDS011;33280;52.152;21.052;2023-04-15T07:36:34;12.07;;;6.47;;
47539;SDS011;33280;52.152;21.052;2023-04-15T07:39:02;9.70;;;6.80;;
47539;SDS011;33280;52.152;21.052;2023-04-15T07:41:29;11.57;;;7.00;;
47539;SDS011;33280;52.152;21.052;2023-04-15T07:43:56;8.50;;;6.37;;
47539;SDS011;33280;52.152;21.052;2023-04-15T07:46:24;9.20;;;6.70;;
47539;SDS011;33280;52.152;21.052;2023-04-15T07:48:52;10.87;;;6.90;;
47539;SDS011;33280;52.152;21.052;2023-04-15T07:51:19;11.07;;;7.07;;
47539;SDS011;33280;52.152;21.052;2023-04-15T07:53:46;10.93;;;6.70;;
47539;SDS011;33280;52.152;21.052;2023-04-15T07:56:18;10.03;;;6.57;;
47539;SDS011;33280;52.152;21.052;2023-04-15T07:58:47;10.23;;;6.40;;
47539;SDS011;33280;52.152;21.052;2023-04-15T08:01:14;8.77;;;6.50;;
47539;SDS011;33280;52.152;21.052;2023-04-15T08:03:41;9.10;;;6.20;;
47539;SDS011;33280;52.152;21.052;2023-04-15T08:06:08;12.30;;;6.63;;
47539;SDS011;33280;52.152;21.052;2023-04-15T08:08:35;10.30;;;6.23;;
47539;SDS011;33280;52.152;21.052;2023-04-15T08:11:03;10.20;;;6.30;;
47539;SDS011;33280;52.152;21.052;2023-04-15T08:13:34;10.90;;;5.77;;
47539;SDS011;33280;52.152;21.052;2023-04-15T08:16:20;10.77;;;5.83;;
47539;SDS011;33280;52.152;21.052;2023-04-15T08:18:49;8.80;;;5.77;;
47539;SDS011;33280;52.152;21.052;2023-04-15T08:21:18;11.50;;;6.40;;
47539;SDS011;33280;52.152;21.052;2023-04-15T08:23:45;8.73;;;5.73;;
47539;SDS011;33280;52.152;21.052;2023-04-15T08:26:15;8.10;;;5.57;;
47539;SDS011;33280;52.152;21.052;2023-04-15T08:28:43;8.90;;;5.73;;
47539;SDS011;33280;52.152;21.052;2023-04-15T08:31:11;9.37;;;5.60;;
47539;SDS011;33280;52.152;21.052;2023-04-15T08:33:39;6.87;;;5.03;;
47539;SDS011;33280;52.152;21.052;2023-04-15T08:36:06;9.27;;;5.63;;
47539;SDS011;33280;52.152;21.052;2023-04-15T08:38:33;7.33;;;5.23;;
47539;SDS011;33280;52.152;21.052;2023-04-15T08:41:02;9.13;;;4.97;;
47539;SDS011;33280;52.152;21.052;2023-04-15T08:43:33;7.37;;;4.57;;
47539;SDS011;33280;52.152;21.052;2023-04-15T08:46:01;6.87;;;4.77;;
47539;SDS011;33280;52.152;21.052;2023-04-15T08:48:31;11.57;;;5.33;;
47539;SDS011;33280;52.152;21.052;2023-04-15T08:50:59;10.33;;;5.40;;
47539;SDS011;33280;52.152;21.052;2023-04-15T08:53:28;11.10;;;5.10;;
47539;SDS011;33280;52.152;21.052;2023-04-15T08:55:56;7.03;;;4.00;;
47539;SDS011;33280;52.152;21.052;2023-04-15T08:58:25;6.73;;;4.70;;
47539;SDS011;33280;52.152;21.052;2023-04-15T09:00:52;6.57;;;4.23;;
47539;SDS011;33280;52.152;21.052;2023-04-15T09:03:20;6.40;;;4.60;;
47539;SDS011;33280;52.152;21.052;2023-04-15T09:05:49;6.93;;;4.70;;
47539;SDS011;33280;52.152;21.052;2023-04-15T09:08:18;7.50;;;4.10;;
47539;SDS011;33280;52.152;21.052;2023-04-15T09:10:45;5.13;;;4.23;;
47539;SDS011;33280;52.152;21.052;2023-04-15T09:13:12;6.63;;;4.40;;
47539;SDS011;33280;52.152;21.052;2023-04-15T09:15:39;6.03;;;4.27;;
47539;SDS011;33280;52.152;21.052;2023-04-15T09:18:06;5.80;;;4.17;;
47539;SDS011;33280;52.152;21.052;2023-04-15T09:20:40;5.80;;;4.00;;
47539;SDS011;33280;52.152;21.052;2023-04-15T09:23:14;11.10;;;4.00;;
47539;SDS011;33280;52.152;21.052;2023-04-15T09:25:43;7.30;;;4.00;;
47539;SDS011;33280;52.152;21.052;2023-04-15T09:28:11;4.77;;;3.73;;
47539;SDS011;33280;52.152;21.052;2023-04-15T09:30:38;9.30;;;4.17;;
47539;SDS011;33280;52.152;21.052;2023-04-15T09:33:13;8.57;;;4.23;;
47539;SDS011;33280;52.152;21.052;2023-04-15T09:36:02;8.50;;;4.00;;
47539;SDS011;33280;52.152;21.052;2023-04-15T09:38:30;5.60;;;3.50;;
47539;SDS011;33280;52.152;21.052;2023-04-15T09:40:57;7.10;;;4.60;;
47539;SDS011;33280;52.152;21.052;2023-04-15T09:43:37;6.47;;;4.10;;
47539;SDS011;33280;52.152;21.052;2023-04-15T09:46:05;6.53;;;3.90;;
47539;SDS011;33280;52.152;21.052;2023-04-15T09:48:32;6.83;;;3.80;;
47539;SDS011;33280;52.152;21.052;2023-04-15T09:51:02;4.70;;;3.80;;
47539;SDS011;33280;52.152;21.052;2023-04-15T09:53:46;8.20;;;4.27;;
47539;SDS011;33280;52.152;21.052;2023-04-15T09:56:21;4.70;;;3.57;;
47539;SDS011;33280;52.152;21.052;2023-04-15T09:58:55;4.70;;;3.33;;
47539;SDS011;33280;52.152;21.052;2023-04-15T10:01:22;5.53;;;3.67;;
47539;SDS011;33280;52.152;21.052;2023-04-15T10:03:49;8.97;;;4.30;;
47539;SDS011;33280;52.152;21.052;2023-04-15T10:06:17;5.40;;;4.10;;
47539;SDS011;33280;52.152;21.052;2023-04-15T10:08:44;5.10;;;4.30;;
47539;SDS011;33280;52.152;21.052;2023-04-15T10:11:12;6.67;;;4.07;;
47539;SDS011;33280;52.152;21.052;2023-04-15T10:13:40;5.70;;;3.97;;
47539;SDS011;33280;52.152;21.052;2023-04-15T10:16:10;6.03;;;4.17;;
47539;SDS011;33280;52.152;21.052;2023-04-15T10:18:42;4.70;;;4.23;;
47539;SDS011;33280;52.152;21.052;2023-04-15T10:21:09;5.93;;;4.10;;
47539;SDS011;33280;52.152;21.052;2023-04-15T10:23:39;5.73;;;4.00;;
47539;SDS011;33280;52.152;21.052;2023-04-15T10:26:06;5.40;;;3.67;;
47539;SDS011;33280;52.152;21.052;2023-04-15T10:28:35;5.93;;;3.73;;
47539;SDS011;33280;52.152;21.052;2023-04-15T10:31:02;5.10;;;3.50;;
47539;SDS011;33280;52.152;21.052;2023-04-15T10:33:31;5.23;;;3.40;;
47539;SDS011;33280;52.152;21.052;2023-04-15T10:35:59;5.33;;;3.67;;
47539;SDS011;33280;52.152;21.052;2023-04-15T10:41:14;7.53;;;3.60;;
47539;SDS011;33280;52.152;21.052;2023-04-15T10:46:17;5.50;;;4.13;;
47539;SDS011;33280;52.152;21.052;2023-04-15T10:48:50;5.13;;;3.60;;
47539;SDS011;33280;52.152;21.052;2023-04-15T10:51:29;4.73;;;3.80;;
47539;SDS011;33280;52.152;21.052;2023-04-15T10:53:58;4.73;;;3.67;;
47539;SDS011;33280;52.152;21.052;2023-04-15T10:56:27;6.07;;;4.33;;
47539;SDS011;33280;52.152;21.052;2023-04-15T10:58:54;8.07;;;4.03;;
47539;SDS011;33280;52.152;21.052;2023-04-15T11:01:43;5.67;;;3.50;;
47539;SDS011;33280;52.152;21.052;2023-04-15T11:12:52;4.73;;;3.43;;
47539;SDS011;33280;52.152;21.052;2023-04-15T11:17:50;6.43;;;3.60;;
47539;SDS011;33280;52.152;21.052;2023-04-15T11:20:17;4.37;;;3.47;;
47539;SDS011;33280;52.152;21.052;2023-04-15T11:22:49;4.97;;;3.60;;
47539;SDS011;33280;52.152;21.052;2023-04-15T11:27:51;6.83;;;3.77;;
47539;SDS011;33280;52.152;21.052;2023-04-15T11:30:24;6.93;;;4.13;;
47539;SDS011;33280;52.152;21.052;2023-04-15T11:32:53;6.23;;;4.20;;
47539;SDS011;33280;52.152;21.052;2023-04-15T11:35:23;5.07;;;4.07;;
47539;SDS011;33280;52.152;21.052;2023-04-15T11:37:50;9.13;;;5.20;;
47539;SDS011;33280;52.152;21.052;2023-04-15T11:40:21;9.43;;;5.53;;
47539;SDS011;33280;52.152;21.052;2023-04-15T11:45:54;11.17;;;6.20;;
47539;SDS011;33280;52.152;21.052;2023-04-15T11:48:24;7.70;;;5.43;;
47539;SDS011;33280;52.152;21.052;2023-04-15T11:50:56;7.07;;;5.70;;
47539;SDS011;33280;52.152;21.052;2023-04-15T11:56:30;12.73;;;5.40;;
47539;SDS011;33280;52.152;21.052;2023-04-15T11:58:57;5.47;;;4.30;;
47539;SDS011;33280;52.152;21.052;2023-04-15T12:01:35;6.57;;;4.67;;
47539;SDS011;33280;52.152;21.052;2023-04-15T12:04:10;7.17;;;4.10;;
47539;SDS011;33280;52.152;21.052;2023-04-15T12:06:45;5.70;;;4.00;;
47539;SDS011;33280;52.152;21.052;2023-04-15T12:09:16;5.90;;;4.50;;
47539;SDS011;33280;52.152;21.052;2023-04-15T12:11:44;3.30;;;2.60;;
47539;SDS011;33280;52.152;21.052;2023-04-15T12:16:46;3.87;;;1.97;;
47539;SDS011;33280;52.152;21.052;2023-04-15T12:19:18;2.97;;;2.20;;
47539;SDS011;33280;52.152;21.052;2023-04-15T12:21:49;4.13;;;2.47;;
47539;SDS011;33280;52.152;21.052;2023-04-15T12:24:20;5.73;;;2.73;;
47539;SDS011;33280;52.152;21.052;2023-04-15T12:26:52;5.03;;;3.03;;
47539;SDS011;33280;52.152;21.052;2023-04-15T12:29:26;8.33;;;3.50;;
47539;SDS011;33280;52.152;21.052;2023-04-15T12:32:02;5.45;;;4.10;;
47539;SDS011;33280;52.152;21.052;2023-04-15T12:34:37;6.40;;;4.00;;
47539;SDS011;33280;52.152;21.052;2023-04-15T12:37:11;4.50;;;3.40;;
47539;SDS011;33280;52.152;21.052;2023-04-15T12:39:40;3.93;;;3.30;;
47539;SDS011;33280;52.152;21.052;2023-04-15T12:42:09;4.57;;;3.43;;
47539;SDS011;33280;52.152;21.052;2023-04-15T12:44:36;5.57;;;3.40;;
47539;SDS011;33280;52.152;21.052;2023-04-15T12:47:04;4.50;;;2.67;;
47539;SDS011;33280;52.152;21.052;2023-04-15T12:49:33;4.63;;;2.50;;
47539;SDS011;33280;52.152;21.052;2023-04-15T12:52:00;4.07;;;2.40;;
47539;SDS011;33280;52.152;21.052;2023-04-15T12:54:28;4.63;;;2.90;;
47539;SDS011;33280;52.152;21.052;2023-04-15T12:56:56;5.37;;;2.80;;
47539;SDS011;33280;52.152;21.052;2023-04-15T12:59:23;4.97;;;2.63;;
47539;SDS011;33280;52.152;21.052;2023-04-15T13:01:51;4.00;;;2.83;;
47539;SDS011;33280;52.152;21.052;2023-04-15T13:04:19;4.20;;;2.80;;
47539;SDS011;33280;52.152;21.052;2023-04-15T13:06:48;2.50;;;1.97;;
47539;SDS011;33280;52.152;21.052;2023-04-15T13:09:15;5.73;;;1.80;;
47539;SDS011;33280;52.152;21.052;2023-04-15T13:11:43;2.37;;;1.67;;
47539;SDS011;33280;52.152;21.052;2023-04-15T13:14:10;1.97;;;1.37;;
47539;SDS011;33280;52.152;21.052;2023-04-15T13:16:38;5.23;;;1.60;;
47539;SDS011;33280;52.152;21.052;2023-04-15T13:19:05;2.43;;;1.60;;
47539;SDS011;33280;52.152;21.052;2023-04-15T13:21:32;1.80;;;1.47;;
47539;SDS011;33280;52.152;21.052;2023-04-15T13:24:04;3.40;;;1.77;;
47539;SDS011;33280;52.152;21.052;2023-04-15T13:26:32;4.07;;;2.47;;
47539;SDS011;33280;52.152;21.052;2023-04-15T13:28:59;3.43;;;1.90;;
47539;SDS011;33280;52.152;21.052;2023-04-15T13:31:27;2.07;;;1.63;;
47539;SDS011;33280;52.152;21.052;2023-04-15T13:33:55;6.03;;;1.80;;
47539;SDS011;33280;52.152;21.052;2023-04-15T13:36:23;2.67;;;1.80;;
47539;SDS011;33280;52.152;21.052;2023-04-15T13:38:50;2.90;;;2.00;;
47539;SDS011;33280;52.152;21.052;2023-04-15T13:41:17;4.83;;;2.10;;
47539;SDS011;33280;52.152;21.052;2023-04-15T13:43:45;4.63;;;2.10;;
47539;SDS011;33280;52.152;21.052;2023-04-15T13:46:13;3.37;;;2.03;;
47539;SDS011;33280;52.152;21.052;2023-04-15T13:49:08;2.40;;;1.87;;
47539;SDS011;33280;52.152;21.052;2023-04-15T13:51:34;4.17;;;2.13;;
47539;SDS011;33280;52.152;21.052;2023-04-15T13:54:02;3.13;;;1.90;;
47539;SDS011;33280;52.152;21.052;2023-04-15T13:56:29;4.37;;;2.30;;
47539;SDS011;33280;52.152;21.052;2023-04-15T13:58:58;5.37;;;2.00;;
47539;SDS011;33280;52.152;21.052;2023-04-15T14:01:29;3.50;;;2.17;;
47539;SDS011;33280;52.152;21.052;2023-04-15T14:03:56;5.07;;;2.30;;
47539;SDS011;33280;52.152;21.052;2023-04-15T14:06:23;2.80;;;1.87;;
47539;SDS011;33280;52.152;21.052;2023-04-15T14:08:51;3.83;;;2.30;;
47539;SDS011;33280;52.152;21.052;2023-04-15T14:11:22;3.67;;;2.30;;
47539;SDS011;33280;52.152;21.052;2023-04-15T14:13:49;3.13;;;2.00;;
47539;SDS011;33280;52.152;21.052;2023-04-15T14:16:16;3.03;;;2.27;;
47539;SDS011;33280;52.152;21.052;2023-04-15T14:18:43;2.93;;;1.90;;
47539;SDS011;33280;52.152;21.052;2023-04-15T14:21:10;2.53;;;1.87;;
47539;SDS011;33280;52.152;21.052;2023-04-15T14:23:40;4.27;;;2.17;;
47539;SDS011;33280;52.152;21.052;2023-04-15T14:26:07;5.00;;;2.53;;
47539;SDS011;33280;52.152;21.052;2023-04-15T14:28:34;3.37;;;1.83;;
47539;SDS011;33280;52.152;21.052;2023-04-15T14:31:03;1.83;;;1.60;;
47539;SDS011;33280;52.152;21.052;2023-04-15T14:33:31;2.13;;;1.53;;
47539;SDS011;33280;52.152;21.052;2023-04-15T14:35:57;11.30;;;3.07;;
47539;SDS011;33280;52.152;21.052;2023-04-15T14:38:27;2.10;;;1.70;;
47539;SDS011;33280;52.152;21.052;2023-04-15T14:41:07;2.70;;;2.10;;
47539;SDS011;33280;52.152;21.052;2023-04-15T14:43:38;1.87;;;1.57;;
47539;SDS011;33280;52.152;21.052;2023-04-15T14:46:04;1.60;;;1.50;;
47539;SDS011;33280;52.152;21.052;2023-04-15T14:48:31;2.40;;;1.80;;
47539;SDS011;33280;52.152;21.052;2023-04-15T14:51:00;1.77;;;1.50;;
47539;SDS011;33280;52.152;21.052;2023-04-15T14:53:27;1.73;;;1.60;;
47539;SDS011;33280;52.152;21.052;2023-04-15T14:55:54;4.77;;;1.97;;
47539;SDS011;33280;52.152;21.052;2023-04-15T14:58:23;3.80;;;2.00;;